sensor_id;sensor_type;location;lat;lon;timestamp;temperature;humidity
17762;DHT22;9005;48.838;10.112;2023-12-20T00:02:04;4.30;76.00
17762;DHT22;9005;48.838;10.112;2023-12-20T00:04:31;4.40;76.10
17762;DHT22;9005;48.838;10.112;2023-12-20T00:06:57;4.40;75.80
17762;DHT22;9005;48.838;10.112;2023-12-20T00:09:24;4.40;75.90
17762;DHT22;9005;48.838;10.112;2023-12-20T00:11:52;4.40;75.70
17762;DHT22;9005;48.838;10.112;2023-12-20T00:14:19;4.40;75.80
17762;DHT22;9005;48.838;10.112;2023-12-20T00:16:46;4.40;75.80
17762;DHT22;9005;48.838;10.112;2023-12-20T00:19:13;4.40;76.00
17762;DHT22;9005;48.838;10.112;2023-12-20T00:21:40;4.40;76.00
17762;DHT22;9005;48.838;10.112;2023-12-20T00:24:07;4.40;76.30
17762;DHT22;9005;48.838;10.112;2023-12-20T00:26:33;4.40;76.40
17762;DHT22;9005;48.838;10.112;2023-12-20T00:29:02;4.40;76.60
17762;DHT22;9005;48.838;10.112;2023-12-20T00:31:28;4.40;77.10
17762;DHT22;9005;48.838;10.112;2023-12-20T00:33:55;4.40;77.60
17762;DHT22;9005;48.838;10.112;2023-12-20T00:36:22;4.30;78.30
17762;DHT22;9005;48.838;10.112;2023-12-20T00:38:48;4.30;79.30
17762;DHT22;9005;48.838;10.112;2023-12-20T00:41:16;4.30;79.90
17762;DHT22;9005;48.838;10.112;2023-12-20T00:43:43;4.40;80.10
17762;DHT22;9005;48.838;10.112;2023-12-20T00:46:11;4.40;80.30
17762;DHT22;9005;48.838;10.112;2023-12-20T00:48:38;4.40;80.10
17762;DHT22;9005;48.838;10.112;2023-12-20T00:51:07;4.40;80.30
17762;DHT22;9005;48.838;10.112;2023-12-20T00:53:34;4.50;79.90
17762;DHT22;9005;48.838;10.112;2023-12-20T00:56:01;4.50;79.70
17762;DHT22;9005;48.838;10.112;2023-12-20T00:58:27;4.50;79.70
17762;DHT22;9005;48.838;10.112;2023-12-20T01:00:54;4.60;79.70
17762;DHT22;9005;48.838;10.112;2023-12-20T01:03:22;4.60;79.80
17762;DHT22;9005;48.838;10.112;2023-12-20T01:05:49;4.60;79.80
17762;DHT22;9005;48.838;10.112;2023-12-20T01:08:16;4.60;80.40
17762;DHT22;9005;48.838;10.112;2023-12-20T01:10:42;4.50;81.00
17762;DHT22;9005;48.838;10.112;2023-12-20T01:13:09;4.50;81.90
17762;DHT22;9005;48.838;10.112;2023-12-20T01:15:36;4.40;82.70
17762;DHT22;9005;48.838;10.112;2023-12-20T01:18:03;4.30;84.10
17762;DHT22;9005;48.838;10.112;2023-12-20T01:20:31;4.10;86.10
17762;DHT22;9005;48.838;10.112;2023-12-20T01:22:58;4.10;86.00
17762;DHT22;9005;48.838;10.112;2023-12-20T01:25:24;4.00;87.10
17762;DHT22;9005;48.838;10.112;2023-12-20T01:27:51;4.00;87.30
17762;DHT22;9005;48.838;10.112;2023-12-20T01:30:18;3.90;86.80
17762;DHT22;9005;48.838;10.112;2023-12-20T01:32:45;4.20;87.20
17762;DHT22;9005;48.838;10.112;2023-12-20T01:35:12;3.90;87.50
17762;DHT22;9005;48.838;10.112;2023-12-20T01:37:40;3.80;88.20
17762;DHT22;9005;48.838;10.112;2023-12-20T01:40:07;3.80;88.60
17762;DHT22;9005;48.838;10.112;2023-12-20T01:42:34;3.80;89.10
17762;DHT22;9005;48.838;10.112;2023-12-20T01:45:01;3.70;89.60
17762;DHT22;9005;48.838;10.112;2023-12-20T01:47:28;3.70;89.90
17762;DHT22;9005;48.838;10.112;2023-12-20T01:49:55;3.70;90.30
17762;DHT22;9005;48.838;10.112;2023-12-20T01:52:22;3.70;90.50
17762;DHT22;9005;48.838;10.112;2023-12-20T01:54:51;3.60;90.90
17762;DHT22;9005;48.838;10.112;2023-12-20T01:57:20;3.80;91.00
17762;DHT22;9005;48.838;10.112;2023-12-20T01:59:47;3.60;91.40
17762;DHT22;9005;48.838;10.112;2023-12-20T02:02:14;3.80;91.60
17762;DHT22;9005;48.838;10.112;2023-12-20T02:04:41;3.50;91.90
17762;DHT22;9005;48.838;10.112;2023-12-20T02:07:08;3.50;92.20
17762;DHT22;9005;48.838;10.112;2023-12-20T02:09:36;3.50;92.30
17762;DHT22;9005;48.838;10.112;2023-12-20T02:12:05;3.50;92.60
17762;DHT22;9005;48.838;10.112;2023-12-20T02:14:32;3.50;92.70
17762;DHT22;9005;48.838;10.112;2023-12-20T02:16:59;3.50;92.70
17762;DHT22;9005;48.838;10.112;2023-12-20T02:19:25;3.50;92.80
17762;DHT22;9005;48.838;10.112;2023-12-20T02:22:07;3.50;93.10
17762;DHT22;9005;48.838;10.112;2023-12-20T02:24:32;3.50;93.20
17762;DHT22;9005;48.838;10.112;2023-12-20T02:26:59;3.40;93.30
17762;DHT22;9005;48.838;10.112;2023-12-20T02:29:26;3.40;93.50
17762;DHT22;9005;48.838;10.112;2023-12-20T02:31:53;3.40;93.60
17762;DHT22;9005;48.838;10.112;2023-12-20T02:34:20;3.70;93.70
17762;DHT22;9005;48.838;10.112;2023-12-20T02:36:46;3.40;93.80
17762;DHT22;9005;48.838;10.112;2023-12-20T02:39:14;3.50;93.90
17762;DHT22;9005;48.838;10.112;2023-12-20T02:41:41;3.50;94.00
17762;DHT22;9005;48.838;10.112;2023-12-20T02:44:08;3.50;93.90
17762;DHT22;9005;48.838;10.112;2023-12-20T02:46:34;3.50;94.00
17762;DHT22;9005;48.838;10.112;2023-12-20T02:49:01;3.50;94.00
17762;DHT22;9005;48.838;10.112;2023-12-20T02:51:28;3.50;94.10
17762;DHT22;9005;48.838;10.112;2023-12-20T02:53:54;3.50;94.20
17762;DHT22;9005;48.838;10.112;2023-12-20T02:56:23;3.50;94.30
17762;DHT22;9005;48.838;10.112;2023-12-20T02:58:49;3.50;94.30
17762;DHT22;9005;48.838;10.112;2023-12-20T03:01:16;3.50;94.30
17762;DHT22;9005;48.838;10.112;2023-12-20T03:03:43;3.60;94.30
17762;DHT22;9005;48.838;10.112;2023-12-20T03:06:09;3.60;94.40
17762;DHT22;9005;48.838;10.112;2023-12-20T03:08:36;3.60;94.40
17762;DHT22;9005;48.838;10.112;2023-12-20T03:11:04;3.60;94.40
17762;DHT22;9005;48.838;10.112;2023-12-20T03:13:32;3.60;94.40
17762;DHT22;9005;48.838;10.112;2023-12-20T03:15:58;3.60;94.50
17762;DHT22;9005;48.838;10.112;2023-12-20T03:18:25;3.60;94.50
17762;DHT22;9005;48.838;10.112;2023-12-20T03:20:53;3.60;94.60
17762;DHT22;9005;48.838;10.112;2023-12-20T03:23:20;3.60;94.60
17762;DHT22;9005;48.838;10.112;2023-12-20T03:25:46;3.60;94.60
17762;DHT22;9005;48.838;10.112;2023-12-20T03:28:14;3.60;94.60
17762;DHT22;9005;48.838;10.112;2023-12-20T03:30:43;3.60;94.70
17762;DHT22;9005;48.838;10.112;2023-12-20T03:33:10;3.60;94.70
17762;DHT22;9005;48.838;10.112;2023-12-20T03:35:36;3.60;94.80
17762;DHT22;9005;48.838;10.112;2023-12-20T03:38:03;3.60;94.80
17762;DHT22;9005;48.838;10.112;2023-12-20T03:40:30;3.60;94.80
17762;DHT22;9005;48.838;10.112;2023-12-20T03:42:57;3.60;94.90
17762;DHT22;9005;48.838;10.112;2023-12-20T03:45:23;3.60;94.90
17762;DHT22;9005;48.838;10.112;2023-12-20T03:47:51;3.60;94.90
17762;DHT22;9005;48.838;10.112;2023-12-20T03:50:20;3.50;94.90
17762;DHT22;9005;48.838;10.112;2023-12-20T03:52:47;3.50;94.90
17762;DHT22;9005;48.838;10.112;2023-12-20T03:55:14;3.50;94.90
17762;DHT22;9005;48.838;10.112;2023-12-20T03:57:41;3.50;94.80
17762;DHT22;9005;48.838;10.112;2023-12-20T04:00:09;3.70;94.80
17762;DHT22;9005;48.838;10.112;2023-12-20T04:02:36;3.50;94.80
17762;DHT22;9005;48.838;10.112;2023-12-20T04:05:05;3.50;94.70
17762;DHT22;9005;48.838;10.112;2023-12-20T04:07:32;3.50;94.60
17762;DHT22;9005;48.838;10.112;2023-12-20T04:09:59;3.40;94.50
17762;DHT22;9005;48.838;10.112;2023-12-20T04:12:26;3.40;94.30
17762;DHT22;9005;48.838;10.112;2023-12-20T04:14:53;3.40;94.10
17762;DHT22;9005;48.838;10.112;2023-12-20T04:17:20;3.40;93.90
17762;DHT22;9005;48.838;10.112;2023-12-20T04:19:48;3.30;93.90
17762;DHT22;9005;48.838;10.112;2023-12-20T04:22:16;3.40;94.00
17762;DHT22;9005;48.838;10.112;2023-12-20T04:24:43;3.30;93.90
17762;DHT22;9005;48.838;10.112;2023-12-20T04:27:10;3.20;93.80
17762;DHT22;9005;48.838;10.112;2023-12-20T04:29:36;3.20;93.30
17762;DHT22;9005;48.838;10.112;2023-12-20T04:32:04;3.20;93.40
17762;DHT22;9005;48.838;10.112;2023-12-20T04:34:31;3.10;93.20
17762;DHT22;9005;48.838;10.112;2023-12-20T04:36:57;3.10;93.10
17762;DHT22;9005;48.838;10.112;2023-12-20T04:39:25;3.00;93.20
17762;DHT22;9005;48.838;10.112;2023-12-20T04:41:52;3.00;93.40
17762;DHT22;9005;48.838;10.112;2023-12-20T04:44:19;3.00;93.60
17762;DHT22;9005;48.838;10.112;2023-12-20T04:46:46;2.90;93.40
17762;DHT22;9005;48.838;10.112;2023-12-20T04:49:13;2.90;93.40
17762;DHT22;9005;48.838;10.112;2023-12-20T04:51:39;2.90;93.50
17762;DHT22;9005;48.838;10.112;2023-12-20T04:54:06;2.90;93.60
17762;DHT22;9005;48.838;10.112;2023-12-20T04:56:34;2.90;93.60
17762;DHT22;9005;48.838;10.112;2023-12-20T04:59:01;2.90;93.70
17762;DHT22;9005;48.838;10.112;2023-12-20T05:01:27;2.90;93.90
17762;DHT22;9005;48.838;10.112;2023-12-20T05:03:54;2.90;93.90
17762;DHT22;9005;48.838;10.112;2023-12-20T05:06:21;2.90;94.10
17762;DHT22;9005;48.838;10.112;2023-12-20T05:08:48;2.90;94.20
17762;DHT22;9005;48.838;10.112;2023-12-20T05:11:14;2.90;94.20
17762;DHT22;9005;48.838;10.112;2023-12-20T05:13:42;2.90;94.30
17762;DHT22;9005;48.838;10.112;2023-12-20T05:16:09;2.90;94.40
17762;DHT22;9005;48.838;10.112;2023-12-20T05:18:36;2.90;94.50
17762;DHT22;9005;48.838;10.112;2023-12-20T05:21:03;2.90;94.50
17762;DHT22;9005;48.838;10.112;2023-12-20T05:23:30;2.90;94.50
17762;DHT22;9005;48.838;10.112;2023-12-20T05:25:57;2.90;94.60
17762;DHT22;9005;48.838;10.112;2023-12-20T05:28:24;2.90;94.60
17762;DHT22;9005;48.838;10.112;2023-12-20T05:30:52;2.80;94.60
17762;DHT22;9005;48.838;10.112;2023-12-20T05:33:19;2.80;94.60
17762;DHT22;9005;48.838;10.112;2023-12-20T05:35:46;2.80;94.60
17762;DHT22;9005;48.838;10.112;2023-12-20T05:38:13;2.80;94.60
17762;DHT22;9005;48.838;10.112;2023-12-20T05:40:39;2.80;94.70
17762;DHT22;9005;48.838;10.112;2023-12-20T05:43:06;2.80;94.80
17762;DHT22;9005;48.838;10.112;2023-12-20T05:45:33;2.80;94.80
17762;DHT22;9005;48.838;10.112;2023-12-20T05:48:01;2.80;94.80
17762;DHT22;9005;48.838;10.112;2023-12-20T05:50:28;2.80;94.80
17762;DHT22;9005;48.838;10.112;2023-12-20T05:52:55;2.80;94.80
17762;DHT22;9005;48.838;10.112;2023-12-20T05:55:21;2.90;94.80
17762;DHT22;9005;48.838;10.112;2023-12-20T05:57:48;2.80;94.80
17762;DHT22;9005;48.838;10.112;2023-12-20T06:00:16;2.90;94.80
17762;DHT22;9005;48.838;10.112;2023-12-20T06:02:43;2.90;94.80
17762;DHT22;9005;48.838;10.112;2023-12-20T06:05:11;2.90;94.90
17762;DHT22;9005;48.838;10.112;2023-12-20T06:07:38;2.90;95.00
17762;DHT22;9005;48.838;10.112;2023-12-20T06:10:05;2.90;95.00
17762;DHT22;9005;48.838;10.112;2023-12-20T06:12:32;2.90;95.00
17762;DHT22;9005;48.838;10.112;2023-12-20T06:15:01;2.90;95.00
17762;DHT22;9005;48.838;10.112;2023-12-20T06:17:28;2.90;95.00
17762;DHT22;9005;48.838;10.112;2023-12-20T06:19:56;2.90;95.10
17762;DHT22;9005;48.838;10.112;2023-12-20T06:22:24;2.90;95.10
17762;DHT22;9005;48.838;10.112;2023-12-20T06:24:50;3.00;95.20
17762;DHT22;9005;48.838;10.112;2023-12-20T06:27:17;3.00;95.20
17762;DHT22;9005;48.838;10.112;2023-12-20T06:29:44;3.00;95.20
17762;DHT22;9005;48.838;10.112;2023-12-20T06:32:10;3.00;95.30
17762;DHT22;9005;48.838;10.112;2023-12-20T06:34:37;3.00;95.30
17762;DHT22;9005;48.838;10.112;2023-12-20T06:37:04;3.00;95.30
17762;DHT22;9005;48.838;10.112;2023-12-20T06:39:33;3.00;95.40
17762;DHT22;9005;48.838;10.112;2023-12-20T06:42:00;3.00;95.40
17762;DHT22;9005;48.838;10.112;2023-12-20T06:44:27;3.10;95.50
17762;DHT22;9005;48.838;10.112;2023-12-20T06:46:53;3.10;95.50
17762;DHT22;9005;48.838;10.112;2023-12-20T06:49:20;3.10;95.60
17762;DHT22;9005;48.838;10.112;2023-12-20T06:51:47;3.10;95.60
17762;DHT22;9005;48.838;10.112;2023-12-20T06:54:14;3.10;95.70
17762;DHT22;9005;48.838;10.112;2023-12-20T06:56:42;3.10;95.70
17762;DHT22;9005;48.838;10.112;2023-12-20T06:59:09;3.10;95.70
17762;DHT22;9005;48.838;10.112;2023-12-20T07:01:35;3.10;95.70
17762;DHT22;9005;48.838;10.112;2023-12-20T07:04:03;3.10;95.70
17762;DHT22;9005;48.838;10.112;2023-12-20T07:06:30;3.10;95.70
17762;DHT22;9005;48.838;10.112;2023-12-20T07:08:57;3.10;95.60
17762;DHT22;9005;48.838;10.112;2023-12-20T07:11:23;3.10;95.70
17762;DHT22;9005;48.838;10.112;2023-12-20T07:13:53;3.10;95.80
17762;DHT22;9005;48.838;10.112;2023-12-20T07:16:18;3.10;95.70
17762;DHT22;9005;48.838;10.112;2023-12-20T07:18:45;3.20;95.80
17762;DHT22;9005;48.838;10.112;2023-12-20T07:21:12;3.20;95.80
17762;DHT22;9005;48.838;10.112;2023-12-20T07:23:39;3.40;95.80
17762;DHT22;9005;48.838;10.112;2023-12-20T07:26:06;3.20;95.90
17762;DHT22;9005;48.838;10.112;2023-12-20T07:28:32;3.20;95.80
17762;DHT22;9005;48.838;10.112;2023-12-20T07:31:00;3.20;95.80
17762;DHT22;9005;48.838;10.112;2023-12-20T07:33:27;3.20;95.80
17762;DHT22;9005;48.838;10.112;2023-12-20T07:35:54;3.20;95.80
17762;DHT22;9005;48.838;10.112;2023-12-20T07:38:20;3.20;95.80
17762;DHT22;9005;48.838;10.112;2023-12-20T07:40:47;3.30;95.90
17762;DHT22;9005;48.838;10.112;2023-12-20T07:43:14;3.30;95.90
17762;DHT22;9005;48.838;10.112;2023-12-20T07:45:41;3.30;95.80
17762;DHT22;9005;48.838;10.112;2023-12-20T07:48:09;3.30;95.80
17762;DHT22;9005;48.838;10.112;2023-12-20T07:50:35;3.30;95.80
17762;DHT22;9005;48.838;10.112;2023-12-20T07:53:02;3.30;95.80
17762;DHT22;9005;48.838;10.112;2023-12-20T07:55:29;3.30;95.70
17762;DHT22;9005;48.838;10.112;2023-12-20T07:57:57;3.30;95.80
17762;DHT22;9005;48.838;10.112;2023-12-20T08:00:23;3.30;95.80
17762;DHT22;9005;48.838;10.112;2023-12-20T08:02:50;3.30;95.80
17762;DHT22;9005;48.838;10.112;2023-12-20T08:05:18;3.30;95.80
17762;DHT22;9005;48.838;10.112;2023-12-20T08:07:45;3.30;95.70
17762;DHT22;9005;48.838;10.112;2023-12-20T08:10:12;3.30;95.70
17762;DHT22;9005;48.838;10.112;2023-12-20T08:12:38;3.30;95.70
17762;DHT22;9005;48.838;10.112;2023-12-20T08:15:06;3.40;95.70
17762;DHT22;9005;48.838;10.112;2023-12-20T08:17:33;3.40;95.70
17762;DHT22;9005;48.838;10.112;2023-12-20T08:20:00;3.30;95.60
17762;DHT22;9005;48.838;10.112;2023-12-20T08:22:28;3.40;95.70
17762;DHT22;9005;48.838;10.112;2023-12-20T08:24:55;3.40;95.60
17762;DHT22;9005;48.838;10.112;2023-12-20T08:27:21;3.40;95.70
17762;DHT22;9005;48.838;10.112;2023-12-20T08:29:48;3.40;95.70
17762;DHT22;9005;48.838;10.112;2023-12-20T08:32:16;3.40;95.70
17762;DHT22;9005;48.838;10.112;2023-12-20T08:34:42;3.40;95.80
17762;DHT22;9005;48.838;10.112;2023-12-20T08:37:09;3.40;95.70
17762;DHT22;9005;48.838;10.112;2023-12-20T08:39:37;3.40;95.80
17762;DHT22;9005;48.838;10.112;2023-12-20T08:42:04;3.40;95.70
17762;DHT22;9005;48.838;10.112;2023-12-20T08:44:31;3.40;95.80
17762;DHT22;9005;48.838;10.112;2023-12-20T08:46:58;3.40;95.60
17762;DHT22;9005;48.838;10.112;2023-12-20T08:49:25;3.60;95.50
17762;DHT22;9005;48.838;10.112;2023-12-20T08:51:52;3.40;95.60
17762;DHT22;9005;48.838;10.112;2023-12-20T08:54:18;3.40;95.60
17762;DHT22;9005;48.838;10.112;2023-12-20T08:56:46;3.40;95.50
17762;DHT22;9005;48.838;10.112;2023-12-20T08:59:13;3.40;95.40
17762;DHT22;9005;48.838;10.112;2023-12-20T09:01:40;3.30;95.20
17762;DHT22;9005;48.838;10.112;2023-12-20T09:04:06;3.30;95.00
17762;DHT22;9005;48.838;10.112;2023-12-20T09:06:33;3.50;95.00
17762;DHT22;9005;48.838;10.112;2023-12-20T09:09:00;3.30;95.00
17762;DHT22;9005;48.838;10.112;2023-12-20T09:11:27;3.30;95.10
17762;DHT22;9005;48.838;10.112;2023-12-20T09:13:55;3.30;95.00
17762;DHT22;9005;48.838;10.112;2023-12-20T09:16:21;3.30;94.80
17762;DHT22;9005;48.838;10.112;2023-12-20T09:18:48;3.30;94.80
17762;DHT22;9005;48.838;10.112;2023-12-20T09:21:15;3.30;94.70
17762;DHT22;9005;48.838;10.112;2023-12-20T09:23:42;3.30;94.70
17762;DHT22;9005;48.838;10.112;2023-12-20T09:26:09;3.20;94.60
17762;DHT22;9005;48.838;10.112;2023-12-20T09:28:36;3.30;94.50
17762;DHT22;9005;48.838;10.112;2023-12-20T09:31:05;3.20;94.20
17762;DHT22;9005;48.838;10.112;2023-12-20T09:33:32;3.20;93.90
17762;DHT22;9005;48.838;10.112;2023-12-20T09:35:59;3.10;93.60
17762;DHT22;9005;48.838;10.112;2023-12-20T09:38:25;3.20;93.40
17762;DHT22;9005;48.838;10.112;2023-12-20T09:40:52;3.10;92.70
17762;DHT22;9005;48.838;10.112;2023-12-20T09:43:20;3.20;92.50
17762;DHT22;9005;48.838;10.112;2023-12-20T09:45:53;3.20;92.20
17762;DHT22;9005;48.838;10.112;2023-12-20T09:48:21;3.20;92.10
17762;DHT22;9005;48.838;10.112;2023-12-20T09:50:48;3.20;91.70
17762;DHT22;9005;48.838;10.112;2023-12-20T09:53:16;3.10;91.60
17762;DHT22;9005;48.838;10.112;2023-12-20T09:55:44;3.10;92.00
17762;DHT22;9005;48.838;10.112;2023-12-20T09:58:11;3.00;91.70
17762;DHT22;9005;48.838;10.112;2023-12-20T10:00:38;3.00;91.70
17762;DHT22;9005;48.838;10.112;2023-12-20T10:03:06;3.00;91.50
17762;DHT22;9005;48.838;10.112;2023-12-20T10:05:34;3.00;91.50
17762;DHT22;9005;48.838;10.112;2023-12-20T10:08:01;3.00;92.00
17762;DHT22;9005;48.838;10.112;2023-12-20T10:10:28;3.10;90.50
17762;DHT22;9005;48.838;10.112;2023-12-20T10:13:03;3.00;88.80
17762;DHT22;9005;48.838;10.112;2023-12-20T10:15:29;2.90;88.80
17762;DHT22;9005;48.838;10.112;2023-12-20T10:17:56;2.80;88.50
17762;DHT22;9005;48.838;10.112;2023-12-20T10:20:23;2.70;88.60
17762;DHT22;9005;48.838;10.112;2023-12-20T10:22:52;2.80;88.40
17762;DHT22;9005;48.838;10.112;2023-12-20T10:25:19;2.80;88.20
17762;DHT22;9005;48.838;10.112;2023-12-20T10:27:46;2.80;89.10
17762;DHT22;9005;48.838;10.112;2023-12-20T10:30:14;2.90;88.80
17762;DHT22;9005;48.838;10.112;2023-12-20T10:32:41;3.00;88.40
17762;DHT22;9005;48.838;10.112;2023-12-20T10:35:08;3.30;88.20
17762;DHT22;9005;48.838;10.112;2023-12-20T10:37:35;3.70;86.40
17762;DHT22;9005;48.838;10.112;2023-12-20T10:40:05;3.70;85.80
17762;DHT22;9005;48.838;10.112;2023-12-20T10:42:32;3.60;86.50
17762;DHT22;9005;48.838;10.112;2023-12-20T10:45:00;3.50;85.30
17762;DHT22;9005;48.838;10.112;2023-12-20T10:47:28;3.40;86.10
17762;DHT22;9005;48.838;10.112;2023-12-20T10:49:59;3.40;88.00
17762;DHT22;9005;48.838;10.112;2023-12-20T10:52:27;3.60;87.00
17762;DHT22;9005;48.838;10.112;2023-12-20T10:54:55;3.50;85.80
17762;DHT22;9005;48.838;10.112;2023-12-20T10:57:25;3.70;85.30
17762;DHT22;9005;48.838;10.112;2023-12-20T10:59:54;3.90;85.30
17762;DHT22;9005;48.838;10.112;2023-12-20T11:02:22;3.70;83.60
17762;DHT22;9005;48.838;10.112;2023-12-20T11:04:55;3.70;83.90
17762;DHT22;9005;48.838;10.112;2023-12-20T11:07:31;3.70;85.10
17762;DHT22;9005;48.838;10.112;2023-12-20T11:10:02;3.70;84.40
17762;DHT22;9005;48.838;10.112;2023-12-20T11:12:39;3.70;85.00
17762;DHT22;9005;48.838;10.112;2023-12-20T11:15:11;3.70;85.00
17762;DHT22;9005;48.838;10.112;2023-12-20T11:17:39;3.70;83.90
17762;DHT22;9005;48.838;10.112;2023-12-20T11:20:14;3.60;85.40
17762;DHT22;9005;48.838;10.112;2023-12-20T11:22:52;3.60;84.10
17762;DHT22;9005;48.838;10.112;2023-12-20T11:25:19;3.60;84.50
17762;DHT22;9005;48.838;10.112;2023-12-20T11:28:07;3.60;84.90
17762;DHT22;9005;48.838;10.112;2023-12-20T11:30:41;3.50;85.00
17762;DHT22;9005;48.838;10.112;2023-12-20T11:33:08;3.60;84.90
17762;DHT22;9005;48.838;10.112;2023-12-20T11:35:35;3.60;83.40
17762;DHT22;9005;48.838;10.112;2023-12-20T11:38:02;3.50;84.90
17762;DHT22;9005;48.838;10.112;2023-12-20T11:40:33;3.50;83.50
17762;DHT22;9005;48.838;10.112;2023-12-20T11:43:03;3.50;83.50
17762;DHT22;9005;48.838;10.112;2023-12-20T11:45:30;3.50;82.00
17762;DHT22;9005;48.838;10.112;2023-12-20T11:47:57;3.50;81.50
17762;DHT22;9005;48.838;10.112;2023-12-20T11:50:25;3.50;81.40
17762;DHT22;9005;48.838;10.112;2023-12-20T11:52:52;3.40;78.00
17762;DHT22;9005;48.838;10.112;2023-12-20T11:55:20;3.60;77.10
17762;DHT22;9005;48.838;10.112;2023-12-20T11:57:47;3.50;75.20
17762;DHT22;9005;48.838;10.112;2023-12-20T12:00:16;3.50;77.10
17762;DHT22;9005;48.838;10.112;2023-12-20T12:02:55;3.70;76.30
17762;DHT22;9005;48.838;10.112;2023-12-20T12:05:22;3.80;74.20
17762;DHT22;9005;48.838;10.112;2023-12-20T12:07:48;3.90;72.00
17762;DHT22;9005;48.838;10.112;2023-12-20T12:10:15;4.00;71.90
17762;DHT22;9005;48.838;10.112;2023-12-20T12:12:42;4.00;70.70
17762;DHT22;9005;48.838;10.112;2023-12-20T12:15:09;4.00;72.20
17762;DHT22;9005;48.838;10.112;2023-12-20T12:17:37;4.00;71.50
17762;DHT22;9005;48.838;10.112;2023-12-20T12:20:05;4.00;71.80
17762;DHT22;9005;48.838;10.112;2023-12-20T12:22:32;3.90;71.60
17762;DHT22;9005;48.838;10.112;2023-12-20T12:25:05;3.80;72.10
17762;DHT22;9005;48.838;10.112;2023-12-20T12:27:35;3.70;72.00
17762;DHT22;9005;48.838;10.112;2023-12-20T12:30:05;3.80;72.30
17762;DHT22;9005;48.838;10.112;2023-12-20T12:32:33;3.60;73.40
17762;DHT22;9005;48.838;10.112;2023-12-20T12:35:03;3.50;74.20
17762;DHT22;9005;48.838;10.112;2023-12-20T12:37:33;3.50;72.80
17762;DHT22;9005;48.838;10.112;2023-12-20T12:40:00;3.50;72.40
17762;DHT22;9005;48.838;10.112;2023-12-20T12:42:27;3.50;71.90
17762;DHT22;9005;48.838;10.112;2023-12-20T12:44:54;3.40;72.40
17762;DHT22;9005;48.838;10.112;2023-12-20T12:47:21;3.40;71.30
17762;DHT22;9005;48.838;10.112;2023-12-20T12:49:49;3.40;72.20
17762;DHT22;9005;48.838;10.112;2023-12-20T12:52:19;3.40;72.90
17762;DHT22;9005;48.838;10.112;2023-12-20T12:54:45;3.30;73.40
17762;DHT22;9005;48.838;10.112;2023-12-20T12:57:13;3.30;72.30
17762;DHT22;9005;48.838;10.112;2023-12-20T12:59:41;3.50;72.80
17762;DHT22;9005;48.838;10.112;2023-12-20T13:02:08;3.20;73.60
17762;DHT22;9005;48.838;10.112;2023-12-20T13:04:34;3.10;73.60
17762;DHT22;9005;48.838;10.112;2023-12-20T13:07:01;3.10;74.40
17762;DHT22;9005;48.838;10.112;2023-12-20T13:09:29;3.00;74.60
17762;DHT22;9005;48.838;10.112;2023-12-20T13:11:56;3.10;74.40
17762;DHT22;9005;48.838;10.112;2023-12-20T13:14:24;3.40;73.90
17762;DHT22;9005;48.838;10.112;2023-12-20T13:16:51;3.10;74.60
17762;DHT22;9005;48.838;10.112;2023-12-20T13:19:17;3.10;75.90
17762;DHT22;9005;48.838;10.112;2023-12-20T13:21:44;3.10;73.80
17762;DHT22;9005;48.838;10.112;2023-12-20T13:24:11;3.40;74.20
17762;DHT22;9005;48.838;10.112;2023-12-20T13:26:39;3.30;74.00
17762;DHT22;9005;48.838;10.112;2023-12-20T13:29:05;3.30;73.80
17762;DHT22;9005;48.838;10.112;2023-12-20T13:31:32;3.40;72.80
17762;DHT22;9005;48.838;10.112;2023-12-20T13:33:59;3.40;72.50
17762;DHT22;9005;48.838;10.112;2023-12-20T13:36:26;3.40;72.60
17762;DHT22;9005;48.838;10.112;2023-12-20T13:38:52;3.40;72.50
17762;DHT22;9005;48.838;10.112;2023-12-20T13:41:19;3.40;71.90
17762;DHT22;9005;48.838;10.112;2023-12-20T13:43:48;3.40;73.10
17762;DHT22;9005;48.838;10.112;2023-12-20T13:46:14;3.40;72.20
17762;DHT22;9005;48.838;10.112;2023-12-20T13:48:41;3.40;72.40
17762;DHT22;9005;48.838;10.112;2023-12-20T13:51:08;3.40;70.80
17762;DHT22;9005;48.838;10.112;2023-12-20T13:53:34;3.40;71.10
17762;DHT22;9005;48.838;10.112;2023-12-20T13:56:01;3.40;72.00
17762;DHT22;9005;48.838;10.112;2023-12-20T13:58:28;3.40;71.60
17762;DHT22;9005;48.838;10.112;2023-12-20T14:00:56;3.30;72.20
17762;DHT22;9005;48.838;10.112;2023-12-20T14:03:23;3.30;71.70
17762;DHT22;9005;48.838;10.112;2023-12-20T14:05:50;3.30;72.00
17762;DHT22;9005;48.838;10.112;2023-12-20T14:08:17;3.30;72.20
17762;DHT22;9005;48.838;10.112;2023-12-20T14:10:43;3.30;71.60
17762;DHT22;9005;48.838;10.112;2023-12-20T14:13:10;3.20;72.70
17762;DHT22;9005;48.838;10.112;2023-12-20T14:15:37;3.20;72.70
17762;DHT22;9005;48.838;10.112;2023-12-20T14:18:06;3.20;72.30
17762;DHT22;9005;48.838;10.112;2023-12-20T14:20:33;3.20;72.60
17762;DHT22;9005;48.838;10.112;2023-12-20T14:23:00;3.20;72.90
17762;DHT22;9005;48.838;10.112;2023-12-20T14:25:27;3.10;73.00
17762;DHT22;9005;48.838;10.112;2023-12-20T14:27:54;3.10;73.20
17762;DHT22;9005;48.838;10.112;2023-12-20T14:30:20;3.10;73.30
17762;DHT22;9005;48.838;10.112;2023-12-20T14:32:47;3.10;73.90
17762;DHT22;9005;48.838;10.112;2023-12-20T14:35:15;3.10;74.40
17762;DHT22;9005;48.838;10.112;2023-12-20T14:37:42;3.00;74.20
17762;DHT22;9005;48.838;10.112;2023-12-20T14:40:11;3.00;74.60
17762;DHT22;9005;48.838;10.112;2023-12-20T14:42:41;3.00;74.30
17762;DHT22;9005;48.838;10.112;2023-12-20T14:45:09;3.00;74.50
17762;DHT22;9005;48.838;10.112;2023-12-20T14:47:36;3.00;74.80
17762;DHT22;9005;48.838;10.112;2023-12-20T14:50:03;3.00;74.70
17762;DHT22;9005;48.838;10.112;2023-12-20T14:52:32;3.00;74.40
17762;DHT22;9005;48.838;10.112;2023-12-20T14:54:59;3.00;74.30
17762;DHT22;9005;48.838;10.112;2023-12-20T14:57:26;2.90;74.20
17762;DHT22;9005;48.838;10.112;2023-12-20T14:59:53;2.90;74.70
17762;DHT22;9005;48.838;10.112;2023-12-20T15:02:20;2.90;74.70
17762;DHT22;9005;48.838;10.112;2023-12-20T15:04:46;2.90;74.70
17762;DHT22;9005;48.838;10.112;2023-12-20T15:07:13;2.90;74.40
17762;DHT22;9005;48.838;10.112;2023-12-20T15:09:41;2.90;75.20
17762;DHT22;9005;48.838;10.112;2023-12-20T15:12:11;2.90;75.40
17762;DHT22;9005;48.838;10.112;2023-12-20T15:14:38;2.80;76.10
17762;DHT22;9005;48.838;10.112;2023-12-20T15:17:05;2.70;76.40
17762;DHT22;9005;48.838;10.112;2023-12-20T15:19:31;2.70;76.80
17762;DHT22;9005;48.838;10.112;2023-12-20T15:21:58;2.70;77.10
17762;DHT22;9005;48.838;10.112;2023-12-20T15:24:25;2.70;77.70
17762;DHT22;9005;48.838;10.112;2023-12-20T15:26:55;2.70;77.70
17762;DHT22;9005;48.838;10.112;2023-12-20T15:29:22;2.70;77.80
17762;DHT22;9005;48.838;10.112;2023-12-20T15:31:49;2.70;77.90
17762;DHT22;9005;48.838;10.112;2023-12-20T15:34:16;2.70;78.00
17762;DHT22;9005;48.838;10.112;2023-12-20T15:36:43;2.70;78.10
17762;DHT22;9005;48.838;10.112;2023-12-20T15:39:10;2.70;78.20
17762;DHT22;9005;48.838;10.112;2023-12-20T15:41:39;2.70;78.50
17762;DHT22;9005;48.838;10.112;2023-12-20T15:44:08;2.70;79.10
17762;DHT22;9005;48.838;10.112;2023-12-20T15:46:35;2.70;79.80